sensor_id;sensor_type;location;lat;lon;timestamp;P1;durP1;ratioP1;P2;durP2;ratioP2
49376;SDS011;35253;34.688;33.040;2024-02-26T00:01:36;3.95;;;2.05;;
49376;SDS011;35253;34.688;33.040;2024-02-26T00:04:02;3.63;;;2.30;;
49376;SDS011;35253;34.688;33.040;2024-02-26T00:06:28;3.35;;;2.40;;
49376;SDS011;35253;34.688;33.040;2024-02-26T00:08:54;8.05;;;2.70;;
49376;SDS011;35253;34.688;33.040;2024-02-26T00:11:20;4.78;;;2.25;;
49376;SDS011;35253;34.688;33.040;2024-02-26T00:13:45;2.58;;;2.38;;
49376;SDS011;35253;34.688;33.040;2024-02-26T00:16:11;2.70;;;2.35;;
49376;SDS011;35253;34.688;33.040;2024-02-26T00:18:37;4.10;;;3.08;;
49376;SDS011;35253;34.688;33.040;2024-02-26T00:21:02;4.10;;;2.17;;
49376;SDS011;35253;34.688;33.040;2024-02-26T00:23:28;4.03;;;2.78;;
49376;SDS011;35253;34.688;33.040;2024-02-26T00:25:54;5.30;;;3.00;;
49376;SDS011;35253;34.688;33.040;2024-02-26T00:28:20;3.67;;;2.53;;
49376;SDS011;35253;34.688;33.040;2024-02-26T00:30:46;4.05;;;2.72;;
49376;SDS011;35253;34.688;33.040;2024-02-26T00:33:12;5.70;;;3.05;;
49376;SDS011;35253;34.688;33.040;2024-02-26T00:35:39;7.72;;;4.22;;
49376;SDS011;35253;34.688;33.040;2024-02-26T00:38:05;6.25;;;3.30;;
49376;SDS011;35253;34.688;33.040;2024-02-26T00:40:31;3.53;;;3.22;;
49376;SDS011;35253;34.688;33.040;2024-02-26T00:42:57;4.22;;;3.50;;
49376;SDS011;35253;34.688;33.040;2024-02-26T00:45:22;6.35;;;3.78;;
49376;SDS011;35253;34.688;33.040;2024-02-26T00:47:48;4.10;;;3.63;;
49376;SDS011;35253;34.688;33.040;2024-02-26T00:50:14;5.00;;;4.47;;
49376;SDS011;35253;34.688;33.040;2024-02-26T00:52:40;5.63;;;3.75;;
49376;SDS011;35253;34.688;33.040;2024-02-26T00:55:06;5.93;;;4.45;;
49376;SDS011;35253;34.688;33.040;2024-02-26T00:57:32;8.88;;;4.43;;
49376;SDS011;35253;34.688;33.040;2024-02-26T00:59:58;5.75;;;4.80;;
49376;SDS011;35253;34.688;33.040;2024-02-26T01:02:24;9.48;;;4.68;;
49376;SDS011;35253;34.688;33.040;2024-02-26T01:04:50;6.05;;;4.68;;
49376;SDS011;35253;34.688;33.040;2024-02-26T01:07:16;5.85;;;5.00;;
49376;SDS011;35253;34.688;33.040;2024-02-26T01:09:42;6.05;;;4.32;;
49376;SDS011;35253;34.688;33.040;2024-02-26T01:12:08;8.85;;;6.05;;
49376;SDS011;35253;34.688;33.040;2024-02-26T01:14:33;6.65;;;4.57;;
49376;SDS011;35253;34.688;33.040;2024-02-26T01:16:59;4.65;;;3.33;;
49376;SDS011;35253;34.688;33.040;2024-02-26T01:19:25;4.95;;;3.25;;
49376;SDS011;35253;34.688;33.040;2024-02-26T01:21:50;5.95;;;4.03;;
49376;SDS011;35253;34.688;33.040;2024-02-26T01:24:16;3.47;;;3.00;;
49376;SDS011;35253;34.688;33.040;2024-02-26T01:26:42;5.28;;;2.78;;
49376;SDS011;35253;34.688;33.040;2024-02-26T01:29:08;3.97;;;2.83;;
49376;SDS011;35253;34.688;33.040;2024-02-26T01:31:34;3.40;;;2.63;;
49376;SDS011;35253;34.688;33.040;2024-02-26T01:33:59;3.00;;;2.65;;
49376;SDS011;35253;34.688;33.040;2024-02-26T01:36:25;5.63;;;3.38;;
49376;SDS011;35253;34.688;33.040;2024-02-26T01:38:51;9.45;;;3.38;;
49376;SDS011;35253;34.688;33.040;2024-02-26T01:41:17;5.00;;;3.50;;
49376;SDS011;35253;34.688;33.040;2024-02-26T01:43:42;4.60;;;2.63;;
49376;SDS011;35253;34.688;33.040;2024-02-26T01:46:11;5.13;;;3.17;;
49376;SDS011;35253;34.688;33.040;2024-02-26T01:48:40;11.98;;;4.65;;
49376;SDS011;35253;34.688;33.040;2024-02-26T01:51:07;3.45;;;3.15;;
49376;SDS011;35253;34.688;33.040;2024-02-26T01:53:35;3.90;;;3.00;;
49376;SDS011;35253;34.688;33.040;2024-02-26T01:56:00;4.03;;;2.95;;
49376;SDS011;35253;34.688;33.040;2024-02-26T01:58:27;5.45;;;3.28;;
49376;SDS011;35253;34.688;33.040;2024-02-26T02:00:55;4.05;;;2.63;;
49376;SDS011;35253;34.688;33.040;2024-02-26T02:03:21;5.47;;;3.65;;
49376;SDS011;35253;34.688;33.040;2024-02-26T02:05:48;5.97;;;3.03;;
49376;SDS011;35253;34.688;33.040;2024-02-26T02:08:13;4.65;;;2.47;;
49376;SDS011;35253;34.688;33.040;2024-02-26T02:10:39;3.10;;;2.70;;
49376;SDS011;35253;34.688;33.040;2024-02-26T02:13:07;5.00;;;3.10;;
49376;SDS011;35253;34.688;33.040;2024-02-26T02:15:33;5.50;;;2.60;;
49376;SDS011;35253;34.688;33.040;2024-02-26T02:17:59;3.35;;;3.05;;
49376;SDS011;35253;34.688;33.040;2024-02-26T02:20:26;5.50;;;3.20;;
49376;SDS011;35253;34.688;33.040;2024-02-26T02:22:58;4.20;;;3.28;;
49376;SDS011;35253;34.688;33.040;2024-02-26T02:25:23;7.93;;;4.55;;
49376;SDS011;35253;34.688;33.040;2024-02-26T02:27:49;5.03;;;2.88;;
49376;SDS011;35253;34.688;33.040;2024-02-26T02:30:16;5.20;;;2.80;;
49376;SDS011;35253;34.688;33.040;2024-02-26T02:32:41;5.43;;;3.22;;
49376;SDS011;35253;34.688;33.040;2024-02-26T02:35:08;3.75;;;2.80;;
49376;SDS011;35253;34.688;33.040;2024-02-26T02:37:34;3.50;;;2.72;;
49376;SDS011;35253;34.688;33.040;2024-02-26T02:39:59;3.08;;;2.72;;
49376;SDS011;35253;34.688;33.040;2024-02-26T02:42:25;6.15;;;3.67;;
49376;SDS011;35253;34.688;33.040;2024-02-26T02:44:51;3.00;;;2.70;;
49376;SDS011;35253;34.688;33.040;2024-02-26T02:47:17;5.22;;;3.03;;
49376;SDS011;35253;34.688;33.040;2024-02-26T02:49:42;5.75;;;3.88;;
49376;SDS011;35253;34.688;33.040;2024-02-26T02:52:08;4.75;;;3.40;;
49376;SDS011;35253;34.688;33.040;2024-02-26T02:54:34;3.17;;;2.83;;
49376;SDS011;35253;34.688;33.040;2024-02-26T02:57:00;4.72;;;2.60;;
49376;SDS011;35253;34.688;33.040;2024-02-26T02:59:26;3.30;;;2.20;;
49376;SDS011;35253;34.688;33.040;2024-02-26T03:01:52;3.75;;;2.80;;
49376;SDS011;35253;34.688;33.040;2024-02-26T03:04:18;3.60;;;2.83;;
49376;SDS011;35253;34.688;33.040;2024-02-26T03:06:43;4.65;;;2.63;;
49376;SDS011;35253;34.688;33.040;2024-02-26T03:09:09;3.63;;;2.97;;
49376;SDS011;35253;34.688;33.040;2024-02-26T03:11:35;5.03;;;3.42;;
49376;SDS011;35253;34.688;33.040;2024-02-26T03:14:00;4.93;;;2.78;;
49376;SDS011;35253;34.688;33.040;2024-02-26T03:16:26;3.25;;;2.95;;
49376;SDS011;35253;34.688;33.040;2024-02-26T03:18:52;3.50;;;2.92;;
49376;SDS011;35253;34.688;33.040;2024-02-26T03:21:17;4.47;;;2.72;;
49376;SDS011;35253;34.688;33.040;2024-02-26T03:23:43;4.50;;;3.13;;
49376;SDS011;35253;34.688;33.040;2024-02-26T03:26:09;3.85;;;3.10;;
49376;SDS011;35253;34.688;33.040;2024-02-26T03:28:38;9.45;;;3.25;;
49376;SDS011;35253;34.688;33.040;2024-02-26T03:31:04;4.32;;;2.90;;
49376;SDS011;35253;34.688;33.040;2024-02-26T03:33:29;4.47;;;2.75;;
49376;SDS011;35253;34.688;33.040;2024-02-26T03:35:55;6.30;;;3.47;;
49376;SDS011;35253;34.688;33.040;2024-02-26T03:38:21;4.28;;;2.70;;
49376;SDS011;35253;34.688;33.040;2024-02-26T03:40:46;6.60;;;3.60;;
49376;SDS011;35253;34.688;33.040;2024-02-26T03:43:12;4.47;;;2.78;;
49376;SDS011;35253;34.688;33.040;2024-02-26T03:45:38;5.25;;;3.20;;
49376;SDS011;35253;34.688;33.040;2024-02-26T03:48:04;6.00;;;2.88;;
49376;SDS011;35253;34.688;33.040;2024-02-26T03:50:29;3.42;;;2.65;;
49376;SDS011;35253;34.688;33.040;2024-02-26T03:52:55;6.28;;;3.67;;
49376;SDS011;35253;34.688;33.040;2024-02-26T03:55:22;3.83;;;3.38;;
49376;SDS011;35253;34.688;33.040;2024-02-26T03:57:52;4.50;;;3.25;;
49376;SDS011;35253;34.688;33.040;2024-02-26T04:00:18;12.88;;;3.80;;
49376;SDS011;35253;34.688;33.040;2024-02-26T04:02:44;5.82;;;4.32;;
49376;SDS011;35253;34.688;33.040;2024-02-26T04:05:10;6.88;;;3.60;;
49376;SDS011;35253;34.688;33.040;2024-02-26T04:07:36;7.03;;;4.00;;
49376;SDS011;35253;34.688;33.040;2024-02-26T04:10:02;8.23;;;3.33;;
49376;SDS011;35253;34.688;33.040;2024-02-26T04:12:31;5.13;;;3.58;;
49376;SDS011;35253;34.688;33.040;2024-02-26T04:14:56;6.82;;;3.85;;
49376;SDS011;35253;34.688;33.040;2024-02-26T04:17:22;6.70;;;3.53;;
49376;SDS011;35253;34.688;33.040;2024-02-26T04:19:48;8.23;;;3.65;;
49376;SDS011;35253;34.688;33.040;2024-02-26T04:22:13;5.95;;;3.92;;
49376;SDS011;35253;34.688;33.040;2024-02-26T04:24:39;8.38;;;3.83;;
49376;SDS011;35253;34.688;33.040;2024-02-26T04:27:04;7.18;;;4.13;;
49376;SDS011;35253;34.688;33.040;2024-02-26T04:29:30;4.82;;;3.90;;
49376;SDS011;35253;34.688;33.040;2024-02-26T04:31:56;9.30;;;4.28;;
49376;SDS011;35253;34.688;33.040;2024-02-26T04:34:21;5.82;;;5.25;;
49376;SDS011;35253;34.688;33.040;2024-02-26T04:36:47;8.50;;;5.65;;
49376;SDS011;35253;34.688;33.040;2024-02-26T04:39:13;9.30;;;5.43;;
49376;SDS011;35253;34.688;33.040;2024-02-26T04:41:39;8.35;;;5.35;;
49376;SDS011;35253;34.688;33.040;2024-02-26T04:44:05;5.75;;;5.00;;
49376;SDS011;35253;34.688;33.040;2024-02-26T04:46:30;7.93;;;4.38;;
49376;SDS011;35253;34.688;33.040;2024-02-26T04:48:56;6.55;;;4.95;;
49376;SDS011;35253;34.688;33.040;2024-02-26T04:51:22;7.22;;;5.55;;
49376;SDS011;35253;34.688;33.040;2024-02-26T04:53:47;11.02;;;5.80;;
49376;SDS011;35253;34.688;33.040;2024-02-26T04:56:13;8.18;;;5.10;;
49376;SDS011;35253;34.688;33.040;2024-02-26T04:58:39;7.95;;;4.75;;
49376;SDS011;35253;34.688;33.040;2024-02-26T05:01:05;5.93;;;4.63;;
49376;SDS011;35253;34.688;33.040;2024-02-26T05:03:30;7.88;;;5.32;;
49376;SDS011;35253;34.688;33.040;2024-02-26T05:05:56;7.40;;;4.38;;
49376;SDS011;35253;34.688;33.040;2024-02-26T05:08:23;6.57;;;4.88;;
49376;SDS011;35253;34.688;33.040;2024-02-26T05:10:49;7.22;;;4.55;;
49376;SDS011;35253;34.688;33.040;2024-02-26T05:13:14;8.35;;;4.22;;
49376;SDS011;35253;34.688;33.040;2024-02-26T05:15:43;18.02;;;6.15;;
49376;SDS011;35253;34.688;33.040;2024-02-26T05:18:10;6.13;;;4.28;;
49376;SDS011;35253;34.688;33.040;2024-02-26T05:20:35;5.95;;;3.67;;
49376;SDS011;35253;34.688;33.040;2024-02-26T05:23:03;8.07;;;3.72;;
49376;SDS011;35253;34.688;33.040;2024-02-26T05:25:29;8.93;;;4.18;;
49376;SDS011;35253;34.688;33.040;2024-02-26T05:27:55;11.75;;;3.65;;
49376;SDS011;35253;34.688;33.040;2024-02-26T05:30:20;5.32;;;3.25;;
49376;SDS011;35253;34.688;33.040;2024-02-26T05:32:46;6.03;;;3.03;;
49376;SDS011;35253;34.688;33.040;2024-02-26T05:35:12;5.97;;;2.90;;
49376;SDS011;35253;34.688;33.040;2024-02-26T05:37:38;6.47;;;3.00;;
49376;SDS011;35253;34.688;33.040;2024-02-26T05:40:04;5.28;;;3.13;;
49376;SDS011;35253;34.688;33.040;2024-02-26T05:42:31;7.70;;;2.63;;
49376;SDS011;35253;34.688;33.040;2024-02-26T05:44:56;6.43;;;2.47;;
49376;SDS011;35253;34.688;33.040;2024-02-26T05:47:22;3.13;;;1.98;;
49376;SDS011;35253;34.688;33.040;2024-02-26T05:49:48;6.22;;;2.78;;
49376;SDS011;35253;34.688;33.040;2024-02-26T05:52:14;4.90;;;2.42;;
49376;SDS011;35253;34.688;33.040;2024-02-26T05:54:39;4.90;;;2.65;;
49376;SDS011;35253;34.688;33.040;2024-02-26T05:57:05;10.15;;;3.10;;
49376;SDS011;35253;34.688;33.040;2024-02-26T05:59:31;4.15;;;2.20;;
49376;SDS011;35253;34.688;33.040;2024-02-26T06:01:56;5.05;;;2.42;;
49376;SDS011;35253;34.688;33.040;2024-02-26T06:04:22;5.97;;;2.25;;
49376;SDS011;35253;34.688;33.040;2024-02-26T06:06:47;5.28;;;2.60;;
49376;SDS011;35253;34.688;33.040;2024-02-26T06:09:13;5.30;;;2.20;;
49376;SDS011;35253;34.688;33.040;2024-02-26T06:11:39;6.80;;;2.47;;
49376;SDS011;35253;34.688;33.040;2024-02-26T06:14:04;10.40;;;3.85;;
49376;SDS011;35253;34.688;33.040;2024-02-26T06:16:31;3.58;;;2.63;;
49376;SDS011;35253;34.688;33.040;2024-02-26T06:18:58;3.85;;;2.53;;
49376;SDS011;35253;34.688;33.040;2024-02-26T06:21:25;3.10;;;2.30;;
49376;SDS011;35253;34.688;33.040;2024-02-26T06:23:51;8.80;;;2.80;;
49376;SDS011;35253;34.688;33.040;2024-02-26T06:26:16;3.90;;;2.63;;
49376;SDS011;35253;34.688;33.040;2024-02-26T06:28:42;8.60;;;2.88;;
49376;SDS011;35253;34.688;33.040;2024-02-26T06:31:08;9.80;;;3.28;;
49376;SDS011;35253;34.688;33.040;2024-02-26T06:33:33;5.85;;;3.35;;
49376;SDS011;35253;34.688;33.040;2024-02-26T06:35:59;5.47;;;3.22;;
49376;SDS011;35253;34.688;33.040;2024-02-26T06:38:25;5.93;;;3.38;;
49376;SDS011;35253;34.688;33.040;2024-02-26T06:40:51;6.82;;;3.55;;
49376;SDS011;35253;34.688;33.040;2024-02-26T06:43:16;9.63;;;4.10;;
49376;SDS011;35253;34.688;33.040;2024-02-26T06:45:42;8.88;;;4.30;;
49376;SDS011;35253;34.688;33.040;2024-02-26T06:48:08;12.45;;;4.57;;
49376;SDS011;35253;34.688;33.040;2024-02-26T06:50:33;15.85;;;5.75;;
49376;SDS011;35253;34.688;33.040;2024-02-26T06:52:59;9.18;;;4.70;;
49376;SDS011;35253;34.688;33.040;2024-02-26T06:55:25;7.65;;;4.03;;
49376;SDS011;35253;34.688;33.040;2024-02-26T06:57:50;8.48;;;3.85;;
49376;SDS011;35253;34.688;33.040;2024-02-26T07:00:16;7.93;;;3.97;;
49376;SDS011;35253;34.688;33.040;2024-02-26T07:02:42;8.00;;;4.25;;
49376;SDS011;35253;34.688;33.040;2024-02-26T07:05:08;7.15;;;4.03;;
49376;SDS011;35253;34.688;33.040;2024-02-26T07:07:34;10.00;;;4.38;;
49376;SDS011;35253;34.688;33.040;2024-02-26T07:10:00;6.15;;;4.28;;
49376;SDS011;35253;34.688;33.040;2024-02-26T07:12:29;7.03;;;3.90;;
49376;SDS011;35253;34.688;33.040;2024-02-26T07:14:55;7.82;;;3.45;;
49376;SDS011;35253;34.688;33.040;2024-02-26T07:17:21;7.38;;;3.53;;
49376;SDS011;35253;34.688;33.040;2024-02-26T07:19:46;5.85;;;3.55;;
49376;SDS011;35253;34.688;33.040;2024-02-26T07:22:12;8.93;;;4.20;;
49376;SDS011;35253;34.688;33.040;2024-02-26T07:24:38;7.38;;;4.10;;
49376;SDS011;35253;34.688;33.040;2024-02-26T07:27:04;5.95;;;4.13;;
49376;SDS011;35253;34.688;33.040;2024-02-26T07:29:30;8.93;;;4.10;;
49376;SDS011;35253;34.688;33.040;2024-02-26T07:31:56;6.57;;;3.83;;
49376;SDS011;35253;34.688;33.040;2024-02-26T07:34:21;7.90;;;4.20;;
49376;SDS011;35253;34.688;33.040;2024-02-26T07:36:52;8.35;;;4.90;;
49376;SDS011;35253;34.688;33.040;2024-02-26T07:39:19;9.45;;;4.97;;
49376;SDS011;35253;34.688;33.040;2024-02-26T07:41:44;9.50;;;5.28;;
49376;SDS011;35253;34.688;33.040;2024-02-26T07:44:13;6.38;;;4.55;;
49376;SDS011;35253;34.688;33.040;2024-02-26T07:46:39;5.43;;;4.28;;
49376;SDS011;35253;34.688;33.040;2024-02-26T07:49:04;8.77;;;4.60;;
49376;SDS011;35253;34.688;33.040;2024-02-26T07:51:30;4.78;;;3.67;;
49376;SDS011;35253;34.688;33.040;2024-02-26T07:53:55;4.60;;;4.20;;
49376;SDS011;35253;34.688;33.040;2024-02-26T07:56:21;5.32;;;4.05;;
49376;SDS011;35253;34.688;33.040;2024-02-26T07:58:47;7.95;;;4.10;;
49376;SDS011;35253;34.688;33.040;2024-02-26T08:01:13;8.77;;;3.92;;
49376;SDS011;35253;34.688;33.040;2024-02-26T08:03:39;9.90;;;3.95;;
49376;SDS011;35253;34.688;33.040;2024-02-26T08:06:05;5.70;;;4.35;;
49376;SDS011;35253;34.688;33.040;2024-02-26T08:08:31;7.30;;;3.70;;
49376;SDS011;35253;34.688;33.040;2024-02-26T08:10:56;8.38;;;4.60;;
49376;SDS011;35253;34.688;33.040;2024-02-26T08:13:22;11.10;;;5.70;;
49376;SDS011;35253;34.688;33.040;2024-02-26T08:15:48;8.38;;;4.70;;
49376;SDS011;35253;34.688;33.040;2024-02-26T08:18:13;6.97;;;4.70;;
49376;SDS011;35253;34.688;33.040;2024-02-26T08:20:39;9.48;;;4.93;;
49376;SDS011;35253;34.688;33.040;2024-02-26T08:23:04;6.68;;;4.55;;
49376;SDS011;35253;34.688;33.040;2024-02-26T08:25:30;9.98;;;5.18;;
49376;SDS011;35253;34.688;33.040;2024-02-26T08:27:56;8.50;;;4.88;;
49376;SDS011;35253;34.688;33.040;2024-02-26T08:30:21;6.43;;;5.38;;
49376;SDS011;35253;34.688;33.040;2024-02-26T08:32:47;7.45;;;4.65;;
49376;SDS011;35253;34.688;33.040;2024-02-26T08:35:13;6.07;;;3.28;;
49376;SDS011;35253;34.688;33.040;2024-02-26T08:37:39;5.50;;;3.45;;
49376;SDS011;35253;34.688;33.040;2024-02-26T08:40:06;6.75;;;3.28;;
49376;SDS011;35253;34.688;33.040;2024-02-26T08:42:32;7.75;;;4.68;;
49376;SDS011;35253;34.688;33.040;2024-02-26T08:44:58;6.85;;;3.78;;
49376;SDS011;35253;34.688;33.040;2024-02-26T08:47:26;4.45;;;3.25;;
49376;SDS011;35253;34.688;33.040;2024-02-26T08:49:53;9.48;;;4.10;;
49376;SDS011;35253;34.688;33.040;2024-02-26T08:52:19;7.50;;;5.72;;
49376;SDS011;35253;34.688;33.040;2024-02-26T08:54:45;6.13;;;4.28;;
49376;SDS011;35253;34.688;33.040;2024-02-26T08:57:10;6.22;;;3.80;;
49376;SDS011;35253;34.688;33.040;2024-02-26T08:59:36;8.13;;;4.35;;
49376;SDS011;35253;34.688;33.040;2024-02-26T09:02:02;8.55;;;3.78;;
49376;SDS011;35253;34.688;33.040;2024-02-26T09:04:27;6.13;;;5.20;;
49376;SDS011;35253;34.688;33.040;2024-02-26T09:06:53;8.38;;;3.90;;
49376;SDS011;35253;34.688;33.040;2024-02-26T09:09:19;8.20;;;4.82;;
49376;SDS011;35253;34.688;33.040;2024-02-26T09:11:47;18.95;;;10.73;;
49376;SDS011;35253;34.688;33.040;2024-02-26T09:14:13;15.05;;;11.93;;
49376;SDS011;35253;34.688;33.040;2024-02-26T09:16:39;11.25;;;7.40;;
49376;SDS011;35253;34.688;33.040;2024-02-26T09:19:05;5.40;;;4.80;;
49376;SDS011;35253;34.688;33.040;2024-02-26T09:21:30;5.68;;;3.45;;
49376;SDS011;35253;34.688;33.040;2024-02-26T09:23:56;9.80;;;4.95;;
49376;SDS011;35253;34.688;33.040;2024-02-26T09:26:22;8.32;;;4.97;;
49376;SDS011;35253;34.688;33.040;2024-02-26T09:28:47;9.82;;;7.88;;
49376;SDS011;35253;34.688;33.040;2024-02-26T09:31:14;11.57;;;5.80;;
49376;SDS011;35253;34.688;33.040;2024-02-26T09:33:42;8.35;;;5.03;;
49376;SDS011;35253;34.688;33.040;2024-02-26T09:36:07;7.40;;;5.00;;
49376;SDS011;35253;34.688;33.040;2024-02-26T09:38:35;8.85;;;5.88;;
49376;SDS011;35253;34.688;33.040;2024-02-26T09:41:03;7.70;;;5.80;;
49376;SDS011;35253;34.688;33.040;2024-02-26T09:43:33;8.88;;;5.35;;
49376;SDS011;35253;34.688;33.040;2024-02-26T09:46:04;6.50;;;5.10;;
49376;SDS011;35253;34.688;33.040;2024-02-26T09:48:31;7.75;;;4.95;;
49376;SDS011;35253;34.688;33.040;2024-02-26T09:51:00;5.50;;;4.75;;
49376;SDS011;35253;34.688;33.040;2024-02-26T09:53:27;7.57;;;5.20;;
49376;SDS011;35253;34.688;33.040;2024-02-26T09:55:57;7.90;;;5.32;;
49376;SDS011;35253;34.688;33.040;2024-02-26T09:58:28;6.57;;;5.32;;
49376;SDS011;35253;34.688;33.040;2024-02-26T10:00:56;7.38;;;4.85;;
49376;SDS011;35253;34.688;33.040;2024-02-26T10:03:27;6.20;;;4.60;;
49376;SDS011;35253;34.688;33.040;2024-02-26T10:06:03;5.93;;;4.55;;
49376;SDS011;35253;34.688;33.040;2024-02-26T10:08:31;9.50;;;4.38;;
49376;SDS011;35253;34.688;33.040;2024-02-26T10:10:57;8.20;;;4.45;;
49376;SDS011;35253;34.688;33.040;2024-02-26T10:13:23;6.72;;;4.00;;
49376;SDS011;35253;34.688;33.040;2024-02-26T10:15:49;6.38;;;3.45;;
49376;SDS011;35253;34.688;33.040;2024-02-26T10:18:14;13.57;;;4.38;;
49376;SDS011;35253;34.688;33.040;2024-02-26T10:20:40;5.75;;;3.88;;
49376;SDS011;35253;34.688;33.040;2024-02-26T10:23:06;7.07;;;4.90;;
49376;SDS011;35253;34.688;33.040;2024-02-26T10:25:32;3.83;;;3.53;;
49376;SDS011;35253;34.688;33.040;2024-02-26T10:28:00;8.18;;;3.78;;
49376;SDS011;35253;34.688;33.040;2024-02-26T10:30:30;12.25;;;4.43;;
49376;SDS011;35253;34.688;33.040;2024-02-26T10:32:56;5.63;;;4.30;;
49376;SDS011;35253;34.688;33.040;2024-02-26T10:35:23;11.38;;;7.05;;
49376;SDS011;35253;34.688;33.040;2024-02-26T10:37:49;7.85;;;6.38;;
49376;SDS011;35253;34.688;33.040;2024-02-26T10:40:15;9.30;;;3.95;;
49376;SDS011;35253;34.688;33.040;2024-02-26T10:42:42;7.10;;;3.30;;
49376;SDS011;35253;34.688;33.040;2024-02-26T10:45:08;7.43;;;3.88;;
49376;SDS011;35253;34.688;33.040;2024-02-26T10:47:38;8.05;;;4.63;;
49376;SDS011;35253;34.688;33.040;2024-02-26T10:50:05;8.60;;;4.35;;
49376;SDS011;35253;34.688;33.040;2024-02-26T10:52:32;8.25;;;4.10;;
49376;SDS011;35253;34.688;33.040;2024-02-26T10:55:03;6.60;;;4.13;;
49376;SDS011;35253;34.688;33.040;2024-02-26T10:57:32;8.07;;;4.28;;
49376;SDS011;35253;34.688;33.040;2024-02-26T11:00:02;6.90;;;4.22;;
49376;SDS011;35253;34.688;33.040;2024-02-26T11:02:32;4.28;;;3.88;;
49376;SDS011;35253;34.688;33.040;2024-02-26T11:05:04;5.93;;;3.67;;
49376;SDS011;35253;34.688;33.040;2024-02-26T11:10:01;5.22;;;4.22;;
49376;SDS011;35253;34.688;33.040;2024-02-26T11:12:29;9.85;;;5.18;;
49376;SDS011;35253;34.688;33.040;2024-02-26T11:14:56;7.05;;;4.47;;
49376;SDS011;35253;34.688;33.040;2024-02-26T11:17:29;6.60;;;4.40;;
49376;SDS011;35253;34.688;33.040;2024-02-26T11:19:57;6.28;;;5.22;;
49376;SDS011;35253;34.688;33.040;2024-02-26T11:22:26;6.93;;;4.93;;
49376;SDS011;35253;34.688;33.040;2024-02-26T11:24:53;7.40;;;5.20;;
49376;SDS011;35253;34.688;33.040;2024-02-26T11:27:43;6.28;;;4.70;;
49376;SDS011;35253;34.688;33.040;2024-02-26T11:30:14;4.25;;;3.85;;
49376;SDS011;35253;34.688;33.040;2024-02-26T11:32:43;8.07;;;5.90;;
49376;SDS011;35253;34.688;33.040;2024-02-26T11:35:13;6.75;;;4.97;;
49376;SDS011;35253;34.688;33.040;2024-02-26T11:37:50;8.40;;;4.90;;
49376;SDS011;35253;34.688;33.040;2024-02-26T11:40:19;8.70;;;6.43;;
49376;SDS011;35253;34.688;33.040;2024-02-26T11:42:45;11.57;;;5.40;;
49376;SDS011;35253;34.688;33.040;2024-02-26T11:48:04;6.85;;;4.47;;
49376;SDS011;35253;34.688;33.040;2024-02-26T11:50:36;6.68;;;3.97;;
49376;SDS011;35253;34.688;33.040;2024-02-26T11:53:24;9.18;;;4.43;;
49376;SDS011;35253;34.688;33.040;2024-02-26T11:58:46;7.05;;;4.32;;
49376;SDS011;35253;34.688;33.040;2024-02-26T12:04:19;7.03;;;5.63;;
49376;SDS011;35253;34.688;33.040;2024-02-26T12:06:51;5.55;;;4.15;;
49376;SDS011;35253;34.688;33.040;2024-02-26T12:09:39;7.53;;;3.45;;
49376;SDS011;35253;34.688;33.040;2024-02-26T12:12:07;4.35;;;3.83;;
49376;SDS011;35253;34.688;33.040;2024-02-26T12:14:50;4.55;;;3.80;;
49376;SDS011;35253;34.688;33.040;2024-02-26T12:17:21;3.63;;;3.30;;
49376;SDS011;35253;34.688;33.040;2024-02-26T12:19:48;6.25;;;3.58;;
49376;SDS011;35253;34.688;33.040;2024-02-26T12:22:15;5.28;;;3.90;;
49376;SDS011;35253;34.688;33.040;2024-02-26T12:24:41;3.92;;;3.60;;
49376;SDS011;35253;34.688;33.040;2024-02-26T12:27:08;6.30;;;4.22;;
49376;SDS011;35253;34.688;33.040;2024-02-26T12:29:33;4.55;;;4.03;;
49376;SDS011;35253;34.688;33.040;2024-02-26T12:31:59;4.10;;;3.70;;
49376;SDS011;35253;34.688;33.040;2024-02-26T12:34:26;6.40;;;4.03;;
49376;SDS011;35253;34.688;33.040;2024-02-26T12:36:52;4.65;;;4.18;;
49376;SDS011;35253;34.688;33.040;2024-02-26T12:39:19;5.15;;;4.13;;
49376;SDS011;35253;34.688;33.040;2024-02-26T12:41:46;4.80;;;4.40;;
49376;SDS011;35253;34.688;33.040;2024-02-26T12:44:15;5.32;;;3.72;;
49376;SDS011;35253;34.688;33.040;2024-02-26T12:46:41;6.55;;;4.47;;
49376;SDS011;35253;34.688;33.040;2024-02-26T12:49:07;4.80;;;3.75;;
49376;SDS011;35253;34.688;33.040;2024-02-26T12:51:33;7.78;;;4.45;;
49376;SDS011;35253;34.688;33.040;2024-02-26T12:53:59;6.13;;;5.00;;
49376;SDS011;35253;34.688;33.040;2024-02-26T12:56:26;6.05;;;4.85;;
49376;SDS011;35253;34.688;33.040;2024-02-26T12:58:53;5.80;;;5.00;;
49376;SDS011;35253;34.688;33.040;2024-02-26T13:01:21;7.47;;;5.75;;
49376;SDS011;35253;34.688;33.040;2024-02-26T13:03:49;6.63;;;4.82;;
49376;SDS011;35253;34.688;33.040;2024-02-26T13:06:17;5.40;;;4.78;;
49376;SDS011;35253;34.688;33.040;2024-02-26T13:08:44;8.10;;;5.63;;
49376;SDS011;35253;34.688;33.040;2024-02-26T13:11:11;8.52;;;6.70;;
49376;SDS011;35253;34.688;33.040;2024-02-26T13:13:37;7.07;;;4.93;;
49376;SDS011;35253;34.688;33.040;2024-02-26T13:16:10;8.95;;;6.15;;
49376;SDS011;35253;34.688;33.040;2024-02-26T13:18:39;7.25;;;5.75;;
49376;SDS011;35253;34.688;33.040;2024-02-26T13:21:11;10.70;;;6.07;;
49376;SDS011;35253;34.688;33.040;2024-02-26T13:23:39;11.50;;;6.53;;
49376;SDS011;35253;34.688;33.040;2024-02-26T13:26:05;6.82;;;5.85;;
49376;SDS011;35253;34.688;33.040;2024-02-26T13:28:31;9.32;;;5.95;;
49376;SDS011;35253;34.688;33.040;2024-02-26T13:30:58;8.80;;;5.50;;
49376;SDS011;35253;34.688;33.040;2024-02-26T13:33:25;13.88;;;7.32;;
49376;SDS011;35253;34.688;33.040;2024-02-26T13:35:52;9.85;;;6.22;;
49376;SDS011;35253;34.688;33.040;2024-02-26T13:38:18;13.20;;;6.80;;
49376;SDS011;35253;34.688;33.040;2024-02-26T13:40:44;8.07;;;6.20;;
49376;SDS011;35253;34.688;33.040;2024-02-26T13:43:10;6.38;;;5.78;;
49376;SDS011;35253;34.688;33.040;2024-02-26T13:45:36;7.70;;;5.75;;
49376;SDS011;35253;34.688;33.040;2024-02-26T13:48:03;7.03;;;6.32;;
49376;SDS011;35253;34.688;33.040;2024-02-26T13:50:30;6.43;;;5.45;;
49376;SDS011;35253;34.688;33.040;2024-02-26T13:52:56;9.45;;;5.00;;
49376;SDS011;35253;34.688;33.040;2024-02-26T13:55:23;6.47;;;5.30;;
49376;SDS011;35253;34.688;33.040;2024-02-26T13:57:54;11.65;;;6.15;;
49376;SDS011;35253;34.688;33.040;2024-02-26T14:00:22;7.95;;;5.95;;
49376;SDS011;35253;34.688;33.040;2024-02-26T14:02:48;10.57;;;6.72;;
49376;SDS011;35253;34.688;33.040;2024-02-26T14:05:14;6.53;;;5.90;;
49376;SDS011;35253;34.688;33.040;2024-02-26T14:07:40;6.57;;;5.07;;
49376;SDS011;35253;34.688;33.040;2024-02-26T14:10:06;8.07;;;5.90;;
49376;SDS011;35253;34.688;33.040;2024-02-26T14:12:32;9.30;;;5.60;;
49376;SDS011;35253;34.688;33.040;2024-02-26T14:14:58;5.70;;;5.20;;
49376;SDS011;35253;34.688;33.040;2024-02-26T14:17:26;8.80;;;5.75;;
49376;SDS011;35253;34.688;33.040;2024-02-26T14:19:52;7.80;;;6.82;;
49376;SDS011;35253;34.688;33.040;2024-02-26T14:22:17;6.57;;;5.20;;
49376;SDS011;35253;34.688;33.040;2024-02-26T14:24:43;6.85;;;5.97;;
49376;SDS011;35253;34.688;33.040;2024-02-26T14:27:10;6.30;;;5.70;;
49376;SDS011;35253;34.688;33.040;2024-02-26T14:29:42;7.78;;;5.38;;
49376;SDS011;35253;34.688;33.040;2024-02-26T14:32:09;10.10;;;6.85;;
49376;SDS011;35253;34.688;33.040;2024-02-26T14:34:35;8.35;;;7.15;;
49376;SDS011;35253;34.688;33.040;2024-02-26T14:37:01;8.50;;;7.38;;
49376;SDS011;35253;34.688;33.040;2024-02-26T14:39:27;9.13;;;7.20;;
49376;SDS011;35253;34.688;33.040;2024-02-26T14:41:54;11.07;;;9.82;;